Terminal Aerodrome Forecast
Issued by NWS

Home | Current Version | Previous Version | Text Only | Print | Product List | Glossary On
Versions: 1 2 3 4 5 6 7 8 9 10 11 12 13 14 15 16 17 18 19 20 21 22 23
000
FTUS45 KTFX 301130
TAFGTF
TAF
KGTF 301130Z 3012/3112 VRB06KT 5SM FU VCSH BKN050 OVC100
     FM301700 23014G25KT 4SM FU BKN100 PROB30 3023/3102 VRB15G40KT
      TSRA BKN050CB
     FM310400 26014KT 6SM FU FEW050=

USA.gov is the U.S. government's official web portal to all federal, state and local government web resources and services.